sensor_id;sensor_type;location;lat;lon;timestamp;pressure;altitude;pressure_sealevel;temperature;humidity
61961;BME280;47923;42.506;24.192;2023-01-26T00:01:11;96173.22;;;-2.25;93.39
61961;BME280;47923;42.506;24.192;2023-01-26T00:03:36;96106.41;;;-2.57;93.18
61961;BME280;47923;42.506;24.192;2023-01-26T00:06:04;96093.69;;;-2.65;93.25
61961;BME280;47923;42.506;24.192;2023-01-26T00:08:30;96010.44;;;-3.20;92.84
61961;BME280;47923;42.506;24.192;2023-01-26T00:10:55;96152.88;;;-2.19;92.01
61961;BME280;47923;42.506;24.192;2023-01-26T00:13:21;95861.59;;;-4.04;91.71
61961;BME280;47923;42.506;24.192;2023-01-26T00:15:47;96140.16;;;-2.22;92.06
61961;BME280;47923;42.506;24.192;2023-01-26T00:18:13;96077.31;;;-2.62;92.27
61961;BME280;47923;42.506;24.192;2023-01-26T00:20:38;96141.72;;;-2.21;92.76
61961;BME280;47923;42.506;24.192;2023-01-26T00:23:04;96177.72;;;-2.25;92.12
61961;BME280;47923;42.506;24.192;2023-01-26T00:25:29;95882.44;;;-4.02;91.95
61961;BME280;47923;42.506;24.192;2023-01-26T00:27:55;96158.41;;;-2.26;92.10
61961;BME280;47923;42.506;24.192;2023-01-26T00:30:22;96108.03;;;-2.46;92.02
61961;BME280;47923;42.506;24.192;2023-01-26T00:32:47;96128.75;;;-2.28;91.44
61961;BME280;47923;42.506;24.192;2023-01-26T00:35:13;96138.03;;;-2.25;91.15
61961;BME280;47923;42.506;24.192;2023-01-26T00:37:41;95934.94;;;-3.58;90.73
61961;BME280;47923;42.506;24.192;2023-01-26T00:40:08;96022.69;;;-2.94;91.09
61961;BME280;47923;42.506;24.192;2023-01-26T00:42:34;96028.78;;;-2.88;90.88
61961;BME280;47923;42.506;24.192;2023-01-26T00:44:59;95875.09;;;-3.95;90.52
61961;BME280;47923;42.506;24.192;2023-01-26T00:47:25;96048.41;;;-2.74;90.70
61961;BME280;47923;42.506;24.192;2023-01-26T00:49:50;96116.88;;;-2.20;90.93
61961;BME280;47923;42.506;24.192;2023-01-26T00:52:16;95901.38;;;-3.63;90.59
61961;BME280;47923;42.506;24.192;2023-01-26T00:54:41;95920.69;;;-3.57;91.10
61961;BME280;47923;42.506;24.192;2023-01-26T00:57:07;96125.31;;;-2.23;90.95
61961;BME280;47923;42.506;24.192;2023-01-26T00:59:32;95852.13;;;-3.95;90.14
61961;BME280;47923;42.506;24.192;2023-01-26T01:01:58;96009.22;;;-2.92;90.23
61961;BME280;47923;42.506;24.192;2023-01-26T01:04:25;96059.84;;;-2.63;90.17
61961;BME280;47923;42.506;24.192;2023-01-26T01:06:51;95829.34;;;-4.06;90.52
61961;BME280;47923;42.506;24.192;2023-01-26T01:09:16;96115.25;;;-2.21;90.88
61961;BME280;47923;42.506;24.192;2023-01-26T01:11:42;96107.88;;;-2.19;90.74
61961;BME280;47923;42.506;24.192;2023-01-26T01:14:10;95905.41;;;-3.50;90.80
61961;BME280;47923;42.506;24.192;2023-01-26T01:16:36;96081.06;;;-2.38;90.93
61961;BME280;47923;42.506;24.192;2023-01-26T01:19:01;96105.75;;;-2.17;91.48
61961;BME280;47923;42.506;24.192;2023-01-26T01:21:26;95978.56;;;-2.93;90.97
61961;BME280;47923;42.506;24.192;2023-01-26T01:23:52;95817.50;;;-3.98;91.33
61961;BME280;47923;42.506;24.192;2023-01-26T01:26:18;96086.69;;;-2.14;91.48
61961;BME280;47923;42.506;24.192;2023-01-26T01:28:44;96085.66;;;-2.13;91.62
61961;BME280;47923;42.506;24.192;2023-01-26T01:31:12;96083.00;;;-2.13;91.85
61961;BME280;47923;42.506;24.192;2023-01-26T01:33:38;96024.41;;;-2.52;91.46
61961;BME280;47923;42.506;24.192;2023-01-26T01:36:07;95852.81;;;-3.57;92.08
61961;BME280;47923;42.506;24.192;2023-01-26T01:38:33;96077.44;;;-2.11;92.00
61961;BME280;47923;42.506;24.192;2023-01-26T01:40:59;96084.59;;;-2.12;92.00
61961;BME280;47923;42.506;24.192;2023-01-26T01:43:26;96094.63;;;-2.14;91.90
61961;BME280;47923;42.506;24.192;2023-01-26T01:45:52;96021.50;;;-2.56;91.49
61961;BME280;47923;42.506;24.192;2023-01-26T01:51:37;96084.03;;;-2.14;91.76
61961;BME280;47923;42.506;24.192;2023-01-26T01:54:07;95946.00;;;-3.04;91.36
61961;BME280;47923;42.506;24.192;2023-01-26T01:56:38;96093.59;;;-2.08;91.67
61961;BME280;47923;42.506;24.192;2023-01-26T01:59:05;96074.28;;;-2.03;91.39
61961;BME280;47923;42.506;24.192;2023-01-26T02:01:32;96055.19;;;-2.26;89.94
61961;BME280;47923;42.506;24.192;2023-01-26T02:03:59;96067.63;;;-2.06;90.15
61961;BME280;47923;42.506;24.192;2023-01-26T02:06:46;96040.09;;;-2.25;89.97
61961;BME280;47923;42.506;24.192;2023-01-26T02:09:13;95942.63;;;-2.84;89.66
61961;BME280;47923;42.506;24.192;2023-01-26T02:12:02;96062.88;;;-2.09;89.63
61961;BME280;47923;42.506;24.192;2023-01-26T02:14:29;96057.03;;;-2.06;89.27
61961;BME280;47923;42.506;24.192;2023-01-26T02:16:56;95990.28;;;-2.43;89.85
61961;BME280;47923;42.506;24.192;2023-01-26T02:28:00;96020.22;;;-2.23;89.67
61961;BME280;47923;42.506;24.192;2023-01-26T02:30:27;96038.28;;;-2.04;90.33
61961;BME280;47923;42.506;24.192;2023-01-26T02:32:53;95865.34;;;-3.17;89.84
61961;BME280;47923;42.506;24.192;2023-01-26T02:35:19;95972.03;;;-2.50;90.37
61961;BME280;47923;42.506;24.192;2023-01-26T02:37:44;95880.94;;;-3.10;89.61
61961;BME280;47923;42.506;24.192;2023-01-26T02:40:43;96038.00;;;-1.98;90.02
61961;BME280;47923;42.506;24.192;2023-01-26T02:43:10;95971.50;;;-2.37;89.03
61961;BME280;47923;42.506;24.192;2023-01-26T02:45:37;96040.66;;;-2.03;89.59
61961;BME280;47923;42.506;24.192;2023-01-26T02:48:04;96032.97;;;-2.04;89.55
61961;BME280;47923;42.506;24.192;2023-01-26T02:50:30;96025.56;;;-2.02;89.88
61961;BME280;47923;42.506;24.192;2023-01-26T02:52:56;95400.41;;;-6.14;89.09
61961;BME280;47923;42.506;24.192;2023-01-26T02:55:22;96032.16;;;-2.00;90.13
61961;BME280;47923;42.506;24.192;2023-01-26T02:57:55;96020.25;;;-2.07;90.08
61961;BME280;47923;42.506;24.192;2023-01-26T03:00:26;95965.69;;;-2.44;90.15
61961;BME280;47923;42.506;24.192;2023-01-26T03:02:54;96028.47;;;-2.04;90.63
61961;BME280;47923;42.506;24.192;2023-01-26T03:05:20;96025.81;;;-2.04;90.36
61961;BME280;47923;42.506;24.192;2023-01-26T03:07:46;95856.88;;;-3.09;89.88
61961;BME280;47923;42.506;24.192;2023-01-26T03:10:11;96016.28;;;-2.00;90.25
61961;BME280;47923;42.506;24.192;2023-01-26T03:12:37;96009.13;;;-1.99;90.93
61961;BME280;47923;42.506;24.192;2023-01-26T03:15:04;96008.34;;;-2.05;90.14
61961;BME280;47923;42.506;24.192;2023-01-26T03:17:48;95985.00;;;-2.28;90.06
61961;BME280;47923;42.506;24.192;2023-01-26T03:20:14;95964.94;;;-2.19;89.98
61961;BME280;47923;42.506;24.192;2023-01-26T03:22:58;95937.13;;;-2.37;89.92
61961;BME280;47923;42.506;24.192;2023-01-26T03:25:42;95946.94;;;-2.27;90.08
61961;BME280;47923;42.506;24.192;2023-01-26T03:28:26;95972.88;;;-2.04;90.61
61961;BME280;47923;42.506;24.192;2023-01-26T03:30:54;95948.25;;;-2.25;90.62
61961;BME280;47923;42.506;24.192;2023-01-26T03:33:21;95933.16;;;-2.29;90.69
61961;BME280;47923;42.506;24.192;2023-01-26T03:35:47;95794.25;;;-3.18;90.52
61961;BME280;47923;42.506;24.192;2023-01-26T03:38:12;95962.53;;;-2.05;90.72
61961;BME280;47923;42.506;24.192;2023-01-26T03:40:38;95894.50;;;-2.45;90.91
61961;BME280;47923;42.506;24.192;2023-01-26T03:43:22;95920.72;;;-2.34;90.74
61961;BME280;47923;42.506;24.192;2023-01-26T03:46:07;95933.69;;;-2.22;91.14
61961;BME280;47923;42.506;24.192;2023-01-26T03:48:51;95850.59;;;-2.67;90.81
61961;BME280;47923;42.506;24.192;2023-01-26T03:51:35;95941.59;;;-2.07;91.26
61961;BME280;47923;42.506;24.192;2023-01-26T03:54:19;95620.06;;;-4.17;91.09
61961;BME280;47923;42.506;24.192;2023-01-26T03:57:03;95915.94;;;-2.22;91.65
61961;BME280;47923;42.506;24.192;2023-01-26T03:59:29;95778.13;;;-3.12;91.02
61961;BME280;47923;42.506;24.192;2023-01-26T04:02:08;95952.22;;;-2.02;91.65
61961;BME280;47923;42.506;24.192;2023-01-26T04:04:53;95872.03;;;-2.53;92.00
61961;BME280;47923;42.506;24.192;2023-01-26T04:07:37;95870.97;;;-2.67;91.89
61961;BME280;47923;42.506;24.192;2023-01-26T04:10:23;95950.88;;;-1.99;91.93
61961;BME280;47923;42.506;24.192;2023-01-26T04:12:49;95949.31;;;-2.05;91.48
61961;BME280;47923;42.506;24.192;2023-01-26T04:15:32;95943.19;;;-2.06;91.40
61961;BME280;47923;42.506;24.192;2023-01-26T04:18:18;95940.03;;;-2.08;91.17
61961;BME280;47923;42.506;24.192;2023-01-26T04:21:03;95864.88;;;-2.53;91.37
61961;BME280;47923;42.506;24.192;2023-01-26T04:23:47;95811.44;;;-2.80;90.90
61961;BME280;47923;42.506;24.192;2023-01-26T04:26:13;95870.97;;;-2.32;91.36
61961;BME280;47923;42.506;24.192;2023-01-26T04:28:38;95862.75;;;-2.35;91.08
61961;BME280;47923;42.506;24.192;2023-01-26T04:31:04;95915.16;;;-2.32;91.19
61961;BME280;47923;42.506;24.192;2023-01-26T04:33:30;95864.09;;;-2.53;90.88
61961;BME280;47923;42.506;24.192;2023-01-26T04:35:55;95651.56;;;-3.74;90.97
61961;BME280;47923;42.506;24.192;2023-01-26T04:38:21;95923.06;;;-2.07;91.62
61961;BME280;47923;42.506;24.192;2023-01-26T04:40:53;95893.72;;;-2.05;91.40
61961;BME280;47923;42.506;24.192;2023-01-26T04:43:19;95713.38;;;-3.29;91.66
61961;BME280;47923;42.506;24.192;2023-01-26T04:45:56;95887.06;;;-2.03;91.89
61961;BME280;47923;42.506;24.192;2023-01-26T04:48:22;95898.72;;;-2.04;91.72
61961;BME280;47923;42.506;24.192;2023-01-26T04:50:56;95899.75;;;-2.00;91.60
61961;BME280;47923;42.506;24.192;2023-01-26T04:53:22;95808.25;;;-2.52;91.77
61961;BME280;47923;42.506;24.192;2023-01-26T04:55:48;95722.91;;;-3.08;92.37
61961;BME280;47923;42.506;24.192;2023-01-26T04:58:13;95890.75;;;-1.99;92.19
61961;BME280;47923;42.506;24.192;2023-01-26T05:00:39;95689.88;;;-3.16;92.67
61961;BME280;47923;42.506;24.192;2023-01-26T05:03:04;95809.56;;;-2.44;92.42
61961;BME280;47923;42.506;24.192;2023-01-26T05:05:37;95591.06;;;-3.71;91.92
61961;BME280;47923;42.506;24.192;2023-01-26T05:08:04;95607.44;;;-3.69;92.42
61961;BME280;47923;42.506;24.192;2023-01-26T05:10:30;95862.19;;;-2.02;93.03
61961;BME280;47923;42.506;24.192;2023-01-26T05:12:56;95743.47;;;-2.80;92.81
61961;BME280;47923;42.506;24.192;2023-01-26T05:15:21;95796.88;;;-2.47;93.21
61961;BME280;47923;42.506;24.192;2023-01-26T05:17:47;95721.81;;;-2.87;93.22
61961;BME280;47923;42.506;24.192;2023-01-26T05:20:12;95779.69;;;-2.55;93.56
61961;BME280;47923;42.506;24.192;2023-01-26T05:22:39;95668.44;;;-3.24;93.39
61961;BME280;47923;42.506;24.192;2023-01-26T05:25:04;95870.91;;;-1.96;94.08
61961;BME280;47923;42.506;24.192;2023-01-26T05:27:30;95871.97;;;-1.97;94.27
61961;BME280;47923;42.506;24.192;2023-01-26T05:29:55;95866.13;;;-1.99;94.82
61961;BME280;47923;42.506;24.192;2023-01-26T05:32:25;95575.78;;;-3.94;93.73
61961;BME280;47923;42.506;24.192;2023-01-26T05:34:51;95793.75;;;-2.64;94.63
61961;BME280;47923;42.506;24.192;2023-01-26T05:37:16;95792.91;;;-2.65;94.33
61961;BME280;47923;42.506;24.192;2023-01-26T05:39:42;95758.81;;;-2.82;94.76
61961;BME280;47923;42.506;24.192;2023-01-26T05:42:07;95879.13;;;-2.03;95.44
61961;BME280;47923;42.506;24.192;2023-01-26T05:44:33;95863.53;;;-2.25;95.25
61961;BME280;47923;42.506;24.192;2023-01-26T05:46:58;95882.03;;;-1.99;95.48
61961;BME280;47923;42.506;24.192;2023-01-26T05:49:24;95798.50;;;-2.56;95.60
61961;BME280;47923;42.506;24.192;2023-01-26T05:51:49;95871.72;;;-2.01;95.78
61961;BME280;47923;42.506;24.192;2023-01-26T05:54:15;95870.91;;;-2.01;96.06
61961;BME280;47923;42.506;24.192;2023-01-26T05:56:41;95870.13;;;-2.02;96.17
61961;BME280;47923;42.506;24.192;2023-01-26T05:59:06;95571.00;;;-3.92;95.73
61961;BME280;47923;42.506;24.192;2023-01-26T06:01:32;95838.13;;;-2.26;96.44
61961;BME280;47923;42.506;24.192;2023-01-26T06:03:57;95836.00;;;-2.29;96.28
61961;BME280;47923;42.506;24.192;2023-01-26T06:06:23;95802.44;;;-2.48;96.25
61961;BME280;47923;42.506;24.192;2023-01-26T06:08:48;95690.38;;;-3.19;96.22
61961;BME280;47923;42.506;24.192;2023-01-26T06:11:13;95873.31;;;-2.05;96.54
61961;BME280;47923;42.506;24.192;2023-01-26T06:13:39;95875.16;;;-2.00;96.76
61961;BME280;47923;42.506;24.192;2023-01-26T06:16:04;95749.84;;;-2.81;96.45
61961;BME280;47923;42.506;24.192;2023-01-26T06:18:30;95756.47;;;-2.93;96.99
61961;BME280;47923;42.506;24.192;2023-01-26T06:20:59;95861.63;;;-1.99;96.81
61961;BME280;47923;42.506;24.192;2023-01-26T06:23:25;95868.22;;;-1.91;97.09
61961;BME280;47923;42.506;24.192;2023-01-26T06:25:51;95861.09;;;-1.96;97.05
61961;BME280;47923;42.506;24.192;2023-01-26T06:28:16;95562.03;;;-3.81;96.75
61961;BME280;47923;42.506;24.192;2023-01-26T06:30:44;95865.31;;;-1.84;97.01
61961;BME280;47923;42.506;24.192;2023-01-26T06:33:10;95799.22;;;-2.20;96.59
61961;BME280;47923;42.506;24.192;2023-01-26T06:35:35;95865.31;;;-1.79;96.53
61961;BME280;47923;42.506;24.192;2023-01-26T06:38:01;95727.88;;;-2.71;96.27
61961;BME280;47923;42.506;24.192;2023-01-26T06:40:27;95861.34;;;-1.82;95.95
61961;BME280;47923;42.506;24.192;2023-01-26T06:42:52;95568.09;;;-3.70;95.76
61961;BME280;47923;42.506;24.192;2023-01-26T06:45:18;95800.53;;;-2.12;96.11
61961;BME280;47923;42.506;24.192;2023-01-26T06:47:49;95855.72;;;-1.70;96.51
61961;BME280;47923;42.506;24.192;2023-01-26T06:50:20;95857.31;;;-1.69;96.08
61961;BME280;47923;42.506;24.192;2023-01-26T06:52:50;95861.81;;;-1.70;95.80
61961;BME280;47923;42.506;24.192;2023-01-26T06:55:20;95858.38;;;-1.70;95.02
61961;BME280;47923;42.506;24.192;2023-01-26T06:57:47;95858.88;;;-1.63;95.55
61961;BME280;47923;42.506;24.192;2023-01-26T07:00:12;95852.22;;;-1.55;95.83
61961;BME280;47923;42.506;24.192;2023-01-26T07:02:38;95848.50;;;-1.54;95.45
61961;BME280;47923;42.506;24.192;2023-01-26T07:05:04;95538.50;;;-3.42;95.24
61961;BME280;47923;42.506;24.192;2023-01-26T07:07:29;95853.00;;;-1.45;95.26
61961;BME280;47923;42.506;24.192;2023-01-26T07:09:55;95638.50;;;-2.74;95.41
61961;BME280;47923;42.506;24.192;2023-01-26T07:12:20;95575.97;;;-3.19;94.70
61961;BME280;47923;42.506;24.192;2023-01-26T07:14:46;95844.81;;;-1.53;95.53
61961;BME280;47923;42.506;24.192;2023-01-26T07:17:11;95617.66;;;-2.96;94.96
61961;BME280;47923;42.506;24.192;2023-01-26T07:19:37;95826.50;;;-1.45;95.48
61961;BME280;47923;42.506;24.192;2023-01-26T07:22:03;95675.13;;;-2.32;95.27
61961;BME280;47923;42.506;24.192;2023-01-26T07:24:29;95811.84;;;-1.32;95.31
61961;BME280;47923;42.506;24.192;2023-01-26T07:26:55;95686.69;;;-2.12;95.31
61961;BME280;47923;42.506;24.192;2023-01-26T07:29:21;95809.13;;;-1.22;94.90
61961;BME280;47923;42.506;24.192;2023-01-26T07:31:46;95735.41;;;-1.59;95.40
61961;BME280;47923;42.506;24.192;2023-01-26T07:34:12;95795.00;;;-1.07;95.10
61961;BME280;47923;42.506;24.192;2023-01-26T07:36:38;95777.63;;;-1.28;94.74
61961;BME280;47923;42.506;24.192;2023-01-26T07:39:04;95720.31;;;-1.58;94.23
61961;BME280;47923;42.506;24.192;2023-01-26T07:41:31;95799.72;;;-1.04;94.47
61961;BME280;47923;42.506;24.192;2023-01-26T07:43:56;95810.56;;;-0.95;94.58
61961;BME280;47923;42.506;24.192;2023-01-26T07:46:22;95798.22;;;-0.81;94.28
61961;BME280;47923;42.506;24.192;2023-01-26T07:48:48;95788.56;;;-0.67;94.53
61961;BME280;47923;42.506;24.192;2023-01-26T07:51:14;95652.28;;;-1.34;94.23
61961;BME280;47923;42.506;24.192;2023-01-26T07:53:39;95549.28;;;-2.09;93.20
61961;BME280;47923;42.506;24.192;2023-01-26T07:56:12;95663.34;;;-1.27;92.85
61961;BME280;47923;42.506;24.192;2023-01-26T07:58:39;95790.84;;;-0.50;92.97
61961;BME280;47923;42.506;24.192;2023-01-26T08:01:12;95694.84;;;-1.20;91.97
61961;BME280;47923;42.506;24.192;2023-01-26T08:03:39;95788.25;;;-0.60;92.30
61961;BME280;47923;42.506;24.192;2023-01-26T08:06:05;95805.72;;;-0.54;91.80
61961;BME280;47923;42.506;24.192;2023-01-26T08:08:30;95403.78;;;-2.92;91.89
61961;BME280;47923;42.506;24.192;2023-01-26T08:11:00;95767.56;;;-0.92;91.97
61961;BME280;47923;42.506;24.192;2023-01-26T08:13:27;95712.75;;;-1.36;92.14
61961;BME280;47923;42.506;24.192;2023-01-26T08:15:52;95784.31;;;-0.63;92.33
61961;BME280;47923;42.506;24.192;2023-01-26T08:18:18;95778.84;;;-0.76;92.28
61961;BME280;47923;42.506;24.192;2023-01-26T08:20:51;95535.03;;;-2.18;91.97
61961;BME280;47923;42.506;24.192;2023-01-26T08:23:17;95773.41;;;-0.61;92.46
61961;BME280;47923;42.506;24.192;2023-01-26T08:25:43;95708.16;;;-0.96;92.63
61961;BME280;47923;42.506;24.192;2023-01-26T08:28:09;95755.75;;;-0.76;92.63
61961;BME280;47923;42.506;24.192;2023-01-26T08:30:34;95728.41;;;-1.05;92.78
61961;BME280;47923;42.506;24.192;2023-01-26T08:33:01;95721.84;;;-1.13;93.25
61961;BME280;47923;42.506;24.192;2023-01-26T08:35:27;95754.03;;;-0.91;93.22
61961;BME280;47923;42.506;24.192;2023-01-26T08:37:52;95785.97;;;-0.72;93.30
61961;BME280;47923;42.506;24.192;2023-01-26T08:40:18;95756.97;;;-0.92;93.69
61961;BME280;47923;42.506;24.192;2023-01-26T08:42:43;95683.88;;;-1.37;93.93
61961;BME280;47923;42.506;24.192;2023-01-26T08:45:09;95414.91;;;-2.95;92.87
61961;BME280;47923;42.506;24.192;2023-01-26T08:47:35;95785.53;;;-0.50;93.93
61961;BME280;47923;42.506;24.192;2023-01-26T08:50:00;95670.22;;;-1.21;93.43
61961;BME280;47923;42.506;24.192;2023-01-26T08:52:26;95319.56;;;-3.53;93.36
61961;BME280;47923;42.506;24.192;2023-01-26T08:54:51;95224.69;;;-4.43;93.00
61961;BME280;47923;42.506;24.192;2023-01-26T08:57:17;95711.72;;;-1.06;93.85
61961;BME280;47923;42.506;24.192;2023-01-26T08:59:42;95535.38;;;-2.30;93.69
61961;BME280;47923;42.506;24.192;2023-01-26T09:02:09;95767.34;;;-0.67;94.36
61961;BME280;47923;42.506;24.192;2023-01-26T09:04:35;95779.22;;;-0.59;93.95
61961;BME280;47923;42.506;24.192;2023-01-26T09:07:01;95707.03;;;-0.85;93.90
61961;BME280;47923;42.506;24.192;2023-01-26T09:09:26;95785.34;;;-0.59;93.76
61961;BME280;47923;42.506;24.192;2023-01-26T09:11:55;95781.00;;;-0.49;93.88
61961;BME280;47923;42.506;24.192;2023-01-26T09:14:20;95778.06;;;-0.48;93.61
61961;BME280;47923;42.506;24.192;2023-01-26T09:16:46;95483.78;;;-2.27;93.91
61961;BME280;47923;42.506;24.192;2023-01-26T09:19:12;95772.94;;;-0.39;93.93
61961;BME280;47923;42.506;24.192;2023-01-26T09:21:37;95648.69;;;-1.14;93.81
61961;BME280;47923;42.506;24.192;2023-01-26T09:24:03;95593.81;;;-1.48;93.85
61961;BME280;47923;42.506;24.192;2023-01-26T09:26:29;95700.78;;;-0.70;93.81
61961;BME280;47923;42.506;24.192;2023-01-26T09:28:55;95768.38;;;-0.10;93.88
61961;BME280;47923;42.506;24.192;2023-01-26T09:31:20;95696.75;;;-0.39;93.49
61961;BME280;47923;42.506;24.192;2023-01-26T09:33:48;95747.19;;;0.09;92.84
61961;BME280;47923;42.506;24.192;2023-01-26T09:36:14;95642.41;;;-0.70;92.44
61961;BME280;47923;42.506;24.192;2023-01-26T09:38:39;95736.56;;;0.09;92.92
61961;BME280;47923;42.506;24.192;2023-01-26T09:43:57;95686.06;;;-0.10;92.02
61961;BME280;47923;42.506;24.192;2023-01-26T09:52:34;95717.25;;;-0.20;91.85
61961;BME280;47923;42.506;24.192;2023-01-26T09:55:04;95640.84;;;-0.71;92.51
61961;BME280;47923;42.506;24.192;2023-01-26T09:57:38;95706.41;;;-0.24;92.44
61961;BME280;47923;42.506;24.192;2023-01-26T10:00:29;95623.84;;;-0.70;92.77
61961;BME280;47923;42.506;24.192;2023-01-26T10:05:40;95686.84;;;-0.09;92.14
61961;BME280;47923;42.506;24.192;2023-01-26T10:08:12;95687.88;;;-0.05;92.14
61961;BME280;47923;42.506;24.192;2023-01-26T10:10:42;95691.31;;;0.14;91.92
61961;BME280;47923;42.506;24.192;2023-01-26T10:13:12;95690.56;;;0.33;91.99
61961;BME280;47923;42.506;24.192;2023-01-26T10:15:40;95679.84;;;0.57;91.15
61961;BME280;47923;42.506;24.192;2023-01-26T10:18:20;95693.75;;;0.86;90.48
61961;BME280;47923;42.506;24.192;2023-01-26T10:20:49;95570.06;;;0.23;89.67
61961;BME280;47923;42.506;24.192;2023-01-26T10:23:22;95518.09;;;-0.39;88.34
61961;BME280;47923;42.506;24.192;2023-01-26T10:25:49;95655.50;;;0.49;89.06
61961;BME280;47923;42.506;24.192;2023-01-26T10:28:29;95598.84;;;0.16;88.79
61961;BME280;47923;42.506;24.192;2023-01-26T10:30:56;95335.25;;;-1.30;89.49
61961;BME280;47923;42.506;24.192;2023-01-26T10:35:50;95637.28;;;0.75;90.29
61961;BME280;47923;42.506;24.192;2023-01-26T10:41:01;95549.16;;;0.49;90.02
61961;BME280;47923;42.506;24.192;2023-01-26T10:43:28;95521.44;;;0.37;89.87
61961;BME280;47923;42.506;24.192;2023-01-26T10:45:53;95437.94;;;-0.22;89.67
61961;BME280;47923;42.506;24.192;2023-01-26T10:48:21;95593.69;;;0.90;88.42
61961;BME280;47923;42.506;24.192;2023-01-26T10:50:51;95560.53;;;0.69;89.30
61961;BME280;47923;42.506;24.192;2023-01-26T10:53:27;95591.41;;;0.97;89.14
61961;BME280;47923;42.506;24.192;2023-01-26T10:56:13;95573.28;;;0.99;89.74
61961;BME280;47923;42.506;24.192;2023-01-26T10:58:44;95561.16;;;1.07;89.30
61961;BME280;47923;42.506;24.192;2023-01-26T11:01:12;95435.22;;;0.15;89.35
61961;BME280;47923;42.506;24.192;2023-01-26T11:03:40;95479.34;;;0.44;89.26
61961;BME280;47923;42.506;24.192;2023-01-26T11:06:14;95516.50;;;0.63;89.63
61961;BME280;47923;42.506;24.192;2023-01-26T11:08:40;95547.25;;;0.82;90.32
61961;BME280;47923;42.506;24.192;2023-01-26T11:11:08;95539.31;;;0.96;90.23
61961;BME280;47923;42.506;24.192;2023-01-26T11:13:46;95505.28;;;0.79;90.06
61961;BME280;47923;42.506;24.192;2023-01-26T11:16:29;95523.34;;;0.96;89.81
61961;BME280;47923;42.506;24.192;2023-01-26T11:18:58;95416.44;;;0.39;89.95
61961;BME280;47923;42.506;24.192;2023-01-26T11:21:34;95515.56;;;1.14;89.43
61961;BME280;47923;42.506;24.192;2023-01-26T11:24:31;95508.56;;;1.18;89.14
61961;BME280;47923;42.506;24.192;2023-01-26T11:32:29;95508.84;;;1.02;90.77
61961;BME280;47923;42.506;24.192;2023-01-26T11:37:47;95486.19;;;1.05;89.81
61961;BME280;47923;42.506;24.192;2023-01-26T11:40:22;95495.34;;;1.13;90.39
61961;BME280;47923;42.506;24.192;2023-01-26T11:46:07;95485.59;;;1.08;90.39
61961;BME280;47923;42.506;24.192;2023-01-26T11:54:18;95351.25;;;0.28;89.70
61961;BME280;47923;42.506;24.192;2023-01-26T11:59:59;95458.19;;;0.39;91.19
61961;BME280;47923;42.506;24.192;2023-01-26T12:02:31;95471.78;;;0.65;92.62
61961;BME280;47923;42.506;24.192;2023-01-26T12:05:11;95428.81;;;0.16;92.56
61961;BME280;47923;42.506;24.192;2023-01-26T12:07:52;95363.44;;;-0.45;93.23
61961;BME280;47923;42.506;24.192;2023-01-26T12:11:02;95368.34;;;-0.71;94.12
61961;BME280;47923;42.506;24.192;2023-01-26T12:13:49;95456.81;;;-0.24;95.37
61961;BME280;47923;42.506;24.192;2023-01-26T12:16:39;95295.25;;;-1.33;95.73
61961;BME280;47923;42.506;24.192;2023-01-26T12:21:57;95267.47;;;-1.36;95.19
61961;BME280;47923;42.506;24.192;2023-01-26T12:24:49;95444.19;;;-0.13;95.55
61961;BME280;47923;42.506;24.192;2023-01-26T12:27:23;95382.84;;;-0.31;95.54
61961;BME280;47923;42.506;24.192;2023-01-26T12:29:55;95440.78;;;0.14;95.56
61961;BME280;47923;42.506;24.192;2023-01-26T12:32:25;95309.44;;;-0.54;95.29
61961;BME280;47923;42.506;24.192;2023-01-26T12:34:50;95266.88;;;-0.63;94.50
61961;BME280;47923;42.506;24.192;2023-01-26T12:42:50;95414.56;;;0.40;94.19
61961;BME280;47923;42.506;24.192;2023-01-26T12:45:26;95409.81;;;0.37;94.32
61961;BME280;47923;42.506;24.192;2023-01-26T12:48:05;95409.72;;;0.28;94.83
61961;BME280;47923;42.506;24.192;2023-01-26T12:53:13;95418.19;;;0.16;96.29
61961;BME280;47923;42.506;24.192;2023-01-26T12:55:48;95415.50;;;0.03;97.30
61961;BME280;47923;42.506;24.192;2023-01-26T12:58:30;95171.53;;;-1.52;97.68
61961;BME280;47923;42.506;24.192;2023-01-26T13:01:02;95404.84;;;-0.11;97.99
61961;BME280;47923;42.506;24.192;2023-01-26T13:03:32;95399.53;;;-0.11;98.32
61961;BME280;47923;42.506;24.192;2023-01-26T13:06:26;95398.44;;;-0.10;98.81
61961;BME280;47923;42.506;24.192;2023-01-26T13:08:59;95403.56;;;-0.14;99.19
61961;BME280;47923;42.506;24.192;2023-01-26T13:11:44;95396.94;;;-0.16;99.37
61961;BME280;47923;42.506;24.192;2023-01-26T13:16:57;95392.78;;;-0.36;98.83
61961;BME280;47923;42.506;24.192;2023-01-26T13:27:35;95385.69;;;-0.60;99.24
61961;BME280;47923;42.506;24.192;2023-01-26T13:30:26;95389.13;;;-0.59;98.83
61961;BME280;47923;42.506;24.192;2023-01-26T13:33:20;95384.69;;;-0.64;99.28
61961;BME280;47923;42.506;24.192;2023-01-26T13:35:47;95380.75;;;-0.66;99.82
61961;BME280;47923;42.506;24.192;2023-01-26T13:40:46;95370.94;;;-0.66;99.37
61961;BME280;47923;42.506;24.192;2023-01-26T13:43:42;95363.19;;;-0.62;99.93
61961;BME280;47923;42.506;24.192;2023-01-26T13:46:29;95287.25;;;-1.09;99.75
61961;BME280;47923;42.506;24.192;2023-01-26T13:48:56;95376.28;;;-0.52;99.58
61961;BME280;47923;42.506;24.192;2023-01-26T13:51:25;95358.47;;;-0.51;99.29
61961;BME280;47923;42.506;24.192;2023-01-26T13:58:51;95353.69;;;-0.49;99.67
61961;BME280;47923;42.506;24.192;2023-01-26T14:01:18;95088.59;;;-2.23;99.21
61961;BME280;47923;42.506;24.192;2023-01-26T14:03:43;95057.34;;;-2.39;99.59
61961;BME280;47923;42.506;24.192;2023-01-26T14:06:13;95311.75;;;-0.66;99.53
61961;BME280;47923;42.506;24.192;2023-01-26T14:08:51;95320.22;;;-0.64;99.92
61961;BME280;47923;42.506;24.192;2023-01-26T14:11:21;95314.28;;;-0.75;99.95
61961;BME280;47923;42.506;24.192;2023-01-26T14:13:52;95323.19;;;-0.52;99.72
61961;BME280;47923;42.506;24.192;2023-01-26T14:16:23;95319.59;;;-0.42;99.67
61961;BME280;47923;42.506;24.192;2023-01-26T14:18:50;95323.78;;;-0.55;99.63
61961;BME280;47923;42.506;24.192;2023-01-26T14:21:20;95308.19;;;-0.75;99.33